Página principal
METAR-TAF:

METAR-TAF

Aeroportos :

Fort Hood / Killeen, Texas, Estados Unidos

latitude: 31-06N, longitude: 097-20W, altura: 283 m

Observação actual do tempo

O boletim foi feito há 33 minutos, às 01:15 UTC
Vento 18 kt de oeste com rajadas de 23 kt
Temperatura 5°C
Humidade 87%
Pressão 1008 hPa
Visibilidade: 12.9 km
Nuvens fragmentadasa uma altura de 1000 ft
Encobertoa uma altura de 1800 ft

METAR: KHLR 140115Z AUTO 28018G23KT 8SM BKN010 OVC018 05/03 A2976 RMK AO2 RAB01E15 CIG 008V013 SLP077

Hora: 18:48 (01:48 UTC)


TAF: em falta

Observações e previsões do tempo de mais de 4000 aeroportos (mensagens METAR e TAF).

As estações disponíveis são os pontos amarelos e vermelhos sobre o mapa.

Mova o rato sobre o mapa para ver o nome da estação.

Depois clique no ponto para visualizar as observações e previsões meteorológicas.

Para alterar o mapa : clique nos botões verdes com uma cruz preta para aumentar o zoom; no botão verde com uma pitada de zoom; ou nas setas verdes para mapas adjacentes.


METAR-TAF: